Hon, Libya
Current Conditions -  °F | °C
As of 2:55 PM on Saturday 20 Dec 2014 (Local Time) from HLLM Reporting Station
Broken Clouds Broken Clouds  
Wind Chill: 19°   Ceiling: 2000
Heat Index: 19°   Visibility: 5mi
Dew Point: 10°   Wind: 5mph
Humidity: 56%   Direction: 320°NW
Pressure: 30.36"   Gusts: NA
Location:  29.13°N, 15.95°E
Report Text: HLLM 201155Z 32004KT 8000 BKN020 SCT080 19/10 Q1028
Loading
Personal Weather Stations






























Interactive Weather Map New forecast layout! Learn more

10-Day Weather Forecast

Advertisements
Track Severe Weather on mobile